sensor_id;sensor_type;location;lat;lon;timestamp;P1;durP1;ratioP1;P2;durP2;ratioP2
16504;SDS011;8365;51.030;4.696;2022-07-01T00:00:36;15.13;;;11.20;;
16504;SDS011;8365;51.030;4.696;2022-07-01T00:03:06;14.73;;;10.80;;
16504;SDS011;8365;51.030;4.696;2022-07-01T00:05:37;13.07;;;9.97;;
16504;SDS011;8365;51.030;4.696;2022-07-01T00:08:07;16.67;;;10.30;;
16504;SDS011;8365;51.030;4.696;2022-07-01T00:10:38;14.33;;;9.97;;
16504;SDS011;8365;51.030;4.696;2022-07-01T00:13:11;16.63;;;10.67;;
16504;SDS011;8365;51.030;4.696;2022-07-01T00:15:41;15.60;;;10.60;;
16504;SDS011;8365;51.030;4.696;2022-07-01T00:18:12;14.33;;;10.90;;
16504;SDS011;8365;51.030;4.696;2022-07-01T00:20:45;13.33;;;9.70;;
16504;SDS011;8365;51.030;4.696;2022-07-01T00:23:15;16.30;;;10.07;;
16504;SDS011;8365;51.030;4.696;2022-07-01T00:25:46;12.40;;;9.47;;
16504;SDS011;8365;51.030;4.696;2022-07-01T00:28:17;12.90;;;9.70;;
16504;SDS011;8365;51.030;4.696;2022-07-01T00:30:47;13.17;;;9.50;;
16504;SDS011;8365;51.030;4.696;2022-07-01T00:33:18;11.33;;;9.10;;
16504;SDS011;8365;51.030;4.696;2022-07-01T00:35:48;16.90;;;8.80;;
16504;SDS011;8365;51.030;4.696;2022-07-01T00:38:19;14.87;;;9.80;;
16504;SDS011;8365;51.030;4.696;2022-07-01T00:40:52;14.20;;;9.57;;
16504;SDS011;8365;51.030;4.696;2022-07-01T00:43:24;13.53;;;9.97;;
16504;SDS011;8365;51.030;4.696;2022-07-01T00:45:54;13.40;;;9.47;;
16504;SDS011;8365;51.030;4.696;2022-07-01T00:48:27;12.73;;;8.63;;
16504;SDS011;8365;51.030;4.696;2022-07-01T00:50:58;10.83;;;7.90;;
16504;SDS011;8365;51.030;4.696;2022-07-01T00:53:28;10.63;;;8.80;;
16504;SDS011;8365;51.030;4.696;2022-07-01T00:56:02;10.10;;;8.47;;
16504;SDS011;8365;51.030;4.696;2022-07-01T00:58:32;11.67;;;9.10;;
16504;SDS011;8365;51.030;4.696;2022-07-01T01:01:03;16.63;;;9.03;;
16504;SDS011;8365;51.030;4.696;2022-07-01T01:03:36;10.67;;;7.90;;
16504;SDS011;8365;51.030;4.696;2022-07-01T01:06:06;11.57;;;7.87;;
16504;SDS011;8365;51.030;4.696;2022-07-01T01:08:37;8.27;;;7.37;;
16504;SDS011;8365;51.030;4.696;2022-07-01T01:11:07;10.93;;;8.03;;
16504;SDS011;8365;51.030;4.696;2022-07-01T01:13:38;14.17;;;7.60;;
16504;SDS011;8365;51.030;4.696;2022-07-01T01:16:15;14.13;;;7.93;;
16504;SDS011;8365;51.030;4.696;2022-07-01T01:18:47;13.73;;;7.73;;
16504;SDS011;8365;51.030;4.696;2022-07-01T01:21:18;12.03;;;7.20;;
16504;SDS011;8365;51.030;4.696;2022-07-01T01:23:49;10.27;;;7.77;;
16504;SDS011;8365;51.030;4.696;2022-07-01T01:26:20;10.97;;;7.17;;
16504;SDS011;8365;51.030;4.696;2022-07-01T01:28:52;9.93;;;7.07;;
16504;SDS011;8365;51.030;4.696;2022-07-01T01:31:29;10.20;;;7.63;;
16504;SDS011;8365;51.030;4.696;2022-07-01T01:34:01;12.33;;;7.43;;
16504;SDS011;8365;51.030;4.696;2022-07-01T01:36:34;10.00;;;7.43;;
16504;SDS011;8365;51.030;4.696;2022-07-01T01:39:04;8.67;;;6.77;;
16504;SDS011;8365;51.030;4.696;2022-07-01T01:41:38;9.37;;;7.00;;
16504;SDS011;8365;51.030;4.696;2022-07-01T01:44:08;8.40;;;7.00;;
16504;SDS011;8365;51.030;4.696;2022-07-01T01:46:39;9.30;;;7.37;;
16504;SDS011;8365;51.030;4.696;2022-07-01T01:49:09;11.10;;;7.40;;
16504;SDS011;8365;51.030;4.696;2022-07-01T01:51:40;11.23;;;7.63;;
16504;SDS011;8365;51.030;4.696;2022-07-01T01:54:11;8.23;;;6.87;;
16504;SDS011;8365;51.030;4.696;2022-07-01T01:56:41;8.90;;;6.90;;
16504;SDS011;8365;51.030;4.696;2022-07-01T01:59:14;7.97;;;7.13;;
16504;SDS011;8365;51.030;4.696;2022-07-01T02:01:45;9.27;;;7.60;;
16504;SDS011;8365;51.030;4.696;2022-07-01T02:04:15;12.60;;;7.77;;
16504;SDS011;8365;51.030;4.696;2022-07-01T02:06:46;12.83;;;7.87;;
16504;SDS011;8365;51.030;4.696;2022-07-01T02:09:17;10.37;;;7.40;;
16504;SDS011;8365;51.030;4.696;2022-07-01T02:11:48;10.53;;;7.60;;
16504;SDS011;8365;51.030;4.696;2022-07-01T02:14:18;12.33;;;7.67;;
16504;SDS011;8365;51.030;4.696;2022-07-01T02:16:49;13.03;;;7.73;;
16504;SDS011;8365;51.030;4.696;2022-07-01T02:19:19;12.30;;;8.37;;
16504;SDS011;8365;51.030;4.696;2022-07-01T02:21:50;15.60;;;8.47;;
16504;SDS011;8365;51.030;4.696;2022-07-01T02:24:23;12.57;;;7.57;;
16504;SDS011;8365;51.030;4.696;2022-07-01T02:26:54;10.87;;;8.03;;
16504;SDS011;8365;51.030;4.696;2022-07-01T02:29:24;9.37;;;8.07;;
16504;SDS011;8365;51.030;4.696;2022-07-01T02:31:54;10.97;;;8.13;;
16504;SDS011;8365;51.030;4.696;2022-07-01T02:34:25;11.27;;;8.67;;
16504;SDS011;8365;51.030;4.696;2022-07-01T02:36:55;9.77;;;7.67;;
16504;SDS011;8365;51.030;4.696;2022-07-01T02:39:26;11.83;;;8.27;;
16504;SDS011;8365;51.030;4.696;2022-07-01T02:41:56;9.80;;;7.60;;
16504;SDS011;8365;51.030;4.696;2022-07-01T02:44:45;11.67;;;8.13;;
16504;SDS011;8365;51.030;4.696;2022-07-01T02:47:16;11.03;;;8.17;;
16504;SDS011;8365;51.030;4.696;2022-07-01T02:49:46;12.07;;;8.70;;
16504;SDS011;8365;51.030;4.696;2022-07-01T02:52:17;12.23;;;7.97;;
16504;SDS011;8365;51.030;4.696;2022-07-01T02:54:47;12.50;;;8.20;;
16504;SDS011;8365;51.030;4.696;2022-07-01T02:57:18;12.30;;;8.10;;
16504;SDS011;8365;51.030;4.696;2022-07-01T02:59:48;11.40;;;7.60;;
16504;SDS011;8365;51.030;4.696;2022-07-01T03:02:21;11.73;;;8.43;;
16504;SDS011;8365;51.030;4.696;2022-07-01T03:04:53;14.10;;;8.37;;
16504;SDS011;8365;51.030;4.696;2022-07-01T03:07:23;15.20;;;8.13;;
16504;SDS011;8365;51.030;4.696;2022-07-01T03:09:54;12.57;;;8.77;;
16504;SDS011;8365;51.030;4.696;2022-07-01T03:12:25;10.40;;;8.27;;
16504;SDS011;8365;51.030;4.696;2022-07-01T03:17:26;12.80;;;8.50;;
16504;SDS011;8365;51.030;4.696;2022-07-01T03:19:58;12.47;;;8.03;;
16504;SDS011;8365;51.030;4.696;2022-07-01T03:22:30;11.63;;;8.00;;
16504;SDS011;8365;51.030;4.696;2022-07-01T03:25:02;13.80;;;8.77;;
16504;SDS011;8365;51.030;4.696;2022-07-01T03:27:33;12.07;;;9.23;;
16504;SDS011;8365;51.030;4.696;2022-07-01T03:30:06;11.40;;;8.83;;
16504;SDS011;8365;51.030;4.696;2022-07-01T03:32:36;11.97;;;8.53;;
16504;SDS011;8365;51.030;4.696;2022-07-01T03:35:07;12.13;;;8.43;;
16504;SDS011;8365;51.030;4.696;2022-07-01T03:38:13;13.10;;;9.07;;
16504;SDS011;8365;51.030;4.696;2022-07-01T03:40:43;13.77;;;9.13;;
16504;SDS011;8365;51.030;4.696;2022-07-01T03:43:14;12.50;;;9.40;;
16504;SDS011;8365;51.030;4.696;2022-07-01T03:45:47;11.67;;;9.00;;
16504;SDS011;8365;51.030;4.696;2022-07-01T03:48:23;14.33;;;9.13;;
16504;SDS011;8365;51.030;4.696;2022-07-01T03:50:55;10.03;;;9.03;;
16504;SDS011;8365;51.030;4.696;2022-07-01T03:53:26;11.83;;;8.17;;
16504;SDS011;8365;51.030;4.696;2022-07-01T03:56:15;13.80;;;8.57;;
16504;SDS011;8365;51.030;4.696;2022-07-01T03:58:45;12.53;;;9.67;;
16504;SDS011;8365;51.030;4.696;2022-07-01T04:01:16;13.93;;;8.73;;
16504;SDS011;8365;51.030;4.696;2022-07-01T04:03:46;11.20;;;8.73;;
16504;SDS011;8365;51.030;4.696;2022-07-01T04:06:17;15.00;;;9.40;;
16504;SDS011;8365;51.030;4.696;2022-07-01T04:08:47;11.73;;;8.70;;
16504;SDS011;8365;51.030;4.696;2022-07-01T04:11:18;12.70;;;9.30;;
16504;SDS011;8365;51.030;4.696;2022-07-01T04:13:49;17.37;;;9.23;;
16504;SDS011;8365;51.030;4.696;2022-07-01T04:16:20;13.97;;;8.63;;
16504;SDS011;8365;51.030;4.696;2022-07-01T04:18:51;10.07;;;8.60;;
16504;SDS011;8365;51.030;4.696;2022-07-01T04:21:22;12.10;;;9.00;;
16504;SDS011;8365;51.030;4.696;2022-07-01T04:24:11;12.10;;;9.00;;
16504;SDS011;8365;51.030;4.696;2022-07-01T04:26:43;12.63;;;9.20;;
16504;SDS011;8365;51.030;4.696;2022-07-01T04:29:14;11.90;;;8.63;;
16504;SDS011;8365;51.030;4.696;2022-07-01T04:31:47;14.00;;;8.60;;
16504;SDS011;8365;51.030;4.696;2022-07-01T04:34:20;15.57;;;9.30;;
16504;SDS011;8365;51.030;4.696;2022-07-01T04:36:51;13.33;;;8.93;;
16504;SDS011;8365;51.030;4.696;2022-07-01T04:39:22;15.43;;;8.97;;
16504;SDS011;8365;51.030;4.696;2022-07-01T04:41:52;13.57;;;9.20;;
16504;SDS011;8365;51.030;4.696;2022-07-01T04:44:33;14.20;;;9.50;;
16504;SDS011;8365;51.030;4.696;2022-07-01T04:47:04;13.27;;;8.67;;
16504;SDS011;8365;51.030;4.696;2022-07-01T04:49:35;9.40;;;8.13;;
16504;SDS011;8365;51.030;4.696;2022-07-01T04:52:06;10.03;;;8.50;;
16504;SDS011;8365;51.030;4.696;2022-07-01T04:54:36;10.20;;;8.63;;
16504;SDS011;8365;51.030;4.696;2022-07-01T04:57:07;14.13;;;9.73;;
16504;SDS011;8365;51.030;4.696;2022-07-01T04:59:37;13.43;;;9.63;;
16504;SDS011;8365;51.030;4.696;2022-07-01T05:02:08;15.87;;;10.03;;
16504;SDS011;8365;51.030;4.696;2022-07-01T05:04:38;17.03;;;9.53;;
16504;SDS011;8365;51.030;4.696;2022-07-01T05:07:10;11.57;;;9.93;;
16504;SDS011;8365;51.030;4.696;2022-07-01T05:09:57;14.43;;;9.43;;
16504;SDS011;8365;51.030;4.696;2022-07-01T05:12:31;13.27;;;10.03;;
16504;SDS011;8365;51.030;4.696;2022-07-01T05:15:01;12.63;;;10.17;;
16504;SDS011;8365;51.030;4.696;2022-07-01T05:17:33;13.73;;;10.27;;
16504;SDS011;8365;51.030;4.696;2022-07-01T05:20:23;13.37;;;10.73;;
16504;SDS011;8365;51.030;4.696;2022-07-01T05:23:11;14.00;;;10.70;;
16504;SDS011;8365;51.030;4.696;2022-07-01T05:25:42;14.00;;;11.47;;
16504;SDS011;8365;51.030;4.696;2022-07-01T05:28:12;18.07;;;12.03;;
16504;SDS011;8365;51.030;4.696;2022-07-01T05:30:43;18.60;;;12.87;;
16504;SDS011;8365;51.030;4.696;2022-07-01T05:33:13;15.47;;;12.43;;
16504;SDS011;8365;51.030;4.696;2022-07-01T05:35:44;16.23;;;11.73;;
16504;SDS011;8365;51.030;4.696;2022-07-01T05:38:14;16.83;;;12.63;;
16504;SDS011;8365;51.030;4.696;2022-07-01T05:40:45;15.30;;;12.33;;
16504;SDS011;8365;51.030;4.696;2022-07-01T05:43:15;15.07;;;12.43;;
16504;SDS011;8365;51.030;4.696;2022-07-01T05:45:47;15.73;;;12.20;;
16504;SDS011;8365;51.030;4.696;2022-07-01T05:48:17;16.20;;;11.63;;
16504;SDS011;8365;51.030;4.696;2022-07-01T05:50:50;12.63;;;11.33;;
16504;SDS011;8365;51.030;4.696;2022-07-01T05:53:21;13.40;;;11.43;;
16504;SDS011;8365;51.030;4.696;2022-07-01T05:55:52;15.17;;;12.10;;
16504;SDS011;8365;51.030;4.696;2022-07-01T05:58:22;14.57;;;10.53;;
16504;SDS011;8365;51.030;4.696;2022-07-01T06:00:53;13.93;;;11.03;;
16504;SDS011;8365;51.030;4.696;2022-07-01T06:03:23;15.27;;;10.97;;
16504;SDS011;8365;51.030;4.696;2022-07-01T06:05:54;12.70;;;10.83;;
16504;SDS011;8365;51.030;4.696;2022-07-01T06:08:24;14.60;;;11.03;;
16504;SDS011;8365;51.030;4.696;2022-07-01T06:10:55;14.07;;;10.37;;
16504;SDS011;8365;51.030;4.696;2022-07-01T06:13:25;13.50;;;9.87;;
16504;SDS011;8365;51.030;4.696;2022-07-01T06:15:56;13.87;;;10.10;;
16504;SDS011;8365;51.030;4.696;2022-07-01T06:18:29;13.13;;;9.83;;
16504;SDS011;8365;51.030;4.696;2022-07-01T06:21:00;13.70;;;9.37;;
16504;SDS011;8365;51.030;4.696;2022-07-01T06:23:30;11.17;;;9.20;;
16504;SDS011;8365;51.030;4.696;2022-07-01T06:26:01;13.50;;;9.50;;
16504;SDS011;8365;51.030;4.696;2022-07-01T06:28:31;13.33;;;8.63;;
16504;SDS011;8365;51.030;4.696;2022-07-01T06:31:02;14.37;;;8.77;;
16504;SDS011;8365;51.030;4.696;2022-07-01T06:33:32;11.80;;;8.70;;
16504;SDS011;8365;51.030;4.696;2022-07-01T06:36:03;9.63;;;7.53;;
16504;SDS011;8365;51.030;4.696;2022-07-01T06:38:33;7.90;;;7.03;;
16504;SDS011;8365;51.030;4.696;2022-07-01T06:41:03;9.83;;;7.10;;
16504;SDS011;8365;51.030;4.696;2022-07-01T06:44:06;9.27;;;6.77;;
16504;SDS011;8365;51.030;4.696;2022-07-01T06:46:37;10.63;;;6.60;;
16504;SDS011;8365;51.030;4.696;2022-07-01T06:49:07;9.83;;;6.93;;
16504;SDS011;8365;51.030;4.696;2022-07-01T06:51:38;10.33;;;6.00;;
16504;SDS011;8365;51.030;4.696;2022-07-01T06:54:08;7.50;;;5.67;;
16504;SDS011;8365;51.030;4.696;2022-07-01T06:56:39;7.33;;;5.50;;
16504;SDS011;8365;51.030;4.696;2022-07-01T06:59:09;9.77;;;5.00;;
16504;SDS011;8365;51.030;4.696;2022-07-01T07:01:40;8.90;;;3.97;;
16504;SDS011;8365;51.030;4.696;2022-07-01T07:04:13;6.67;;;4.07;;
16504;SDS011;8365;51.030;4.696;2022-07-01T07:06:43;6.27;;;3.70;;
16504;SDS011;8365;51.030;4.696;2022-07-01T07:09:14;3.87;;;2.60;;
16504;SDS011;8365;51.030;4.696;2022-07-01T07:11:44;3.97;;;2.97;;
16504;SDS011;8365;51.030;4.696;2022-07-01T07:14:15;5.43;;;3.00;;
16504;SDS011;8365;51.030;4.696;2022-07-01T07:16:45;6.67;;;2.90;;
16504;SDS011;8365;51.030;4.696;2022-07-01T07:19:16;6.27;;;2.57;;
16504;SDS011;8365;51.030;4.696;2022-07-01T07:21:46;6.10;;;2.33;;
16504;SDS011;8365;51.030;4.696;2022-07-01T07:24:17;4.87;;;2.47;;
16504;SDS011;8365;51.030;4.696;2022-07-01T07:26:47;5.97;;;2.40;;
16504;SDS011;8365;51.030;4.696;2022-07-01T07:29:18;6.73;;;2.17;;
16504;SDS011;8365;51.030;4.696;2022-07-01T07:31:48;5.90;;;2.20;;
16504;SDS011;8365;51.030;4.696;2022-07-01T07:34:19;6.30;;;2.40;;
16504;SDS011;8365;51.030;4.696;2022-07-01T07:36:49;6.57;;;2.23;;
16504;SDS011;8365;51.030;4.696;2022-07-01T07:39:19;3.27;;;2.13;;
16504;SDS011;8365;51.030;4.696;2022-07-01T07:41:50;5.37;;;2.10;;
16504;SDS011;8365;51.030;4.696;2022-07-01T07:44:20;7.67;;;2.30;;
16504;SDS011;8365;51.030;4.696;2022-07-01T07:46:51;6.67;;;2.10;;
16504;SDS011;8365;51.030;4.696;2022-07-01T07:49:21;4.40;;;1.73;;
16504;SDS011;8365;51.030;4.696;2022-07-01T07:51:52;4.40;;;1.87;;
16504;SDS011;8365;51.030;4.696;2022-07-01T07:54:23;4.80;;;1.80;;
16504;SDS011;8365;51.030;4.696;2022-07-01T07:56:53;4.43;;;1.77;;
16504;SDS011;8365;51.030;4.696;2022-07-01T07:59:26;5.50;;;2.10;;
16504;SDS011;8365;51.030;4.696;2022-07-01T08:01:57;3.97;;;2.00;;
16504;SDS011;8365;51.030;4.696;2022-07-01T08:04:30;4.83;;;1.90;;
16504;SDS011;8365;51.030;4.696;2022-07-01T08:07:00;3.07;;;1.70;;
16504;SDS011;8365;51.030;4.696;2022-07-01T08:09:31;5.13;;;1.60;;
16504;SDS011;8365;51.030;4.696;2022-07-01T08:12:04;4.23;;;2.13;;
16504;SDS011;8365;51.030;4.696;2022-07-01T08:14:35;3.10;;;1.80;;
16504;SDS011;8365;51.030;4.696;2022-07-01T08:17:05;2.97;;;1.90;;
16504;SDS011;8365;51.030;4.696;2022-07-01T08:19:35;2.33;;;1.50;;
16504;SDS011;8365;51.030;4.696;2022-07-01T08:22:06;5.33;;;1.70;;
16504;SDS011;8365;51.030;4.696;2022-07-01T08:24:36;5.87;;;2.03;;
16504;SDS011;8365;51.030;4.696;2022-07-01T08:27:07;2.93;;;1.70;;
16504;SDS011;8365;51.030;4.696;2022-07-01T08:29:38;5.20;;;2.00;;
16504;SDS011;8365;51.030;4.696;2022-07-01T08:32:09;4.27;;;1.57;;
16504;SDS011;8365;51.030;4.696;2022-07-01T08:34:39;3.73;;;1.43;;
16504;SDS011;8365;51.030;4.696;2022-07-01T08:37:09;2.50;;;1.63;;
16504;SDS011;8365;51.030;4.696;2022-07-01T08:39:40;2.60;;;1.47;;
16504;SDS011;8365;51.030;4.696;2022-07-01T08:42:10;3.80;;;1.77;;
16504;SDS011;8365;51.030;4.696;2022-07-01T08:44:41;2.63;;;1.60;;
16504;SDS011;8365;51.030;4.696;2022-07-01T08:47:12;6.80;;;1.90;;
16504;SDS011;8365;51.030;4.696;2022-07-01T08:49:43;5.50;;;1.80;;
16504;SDS011;8365;51.030;4.696;2022-07-01T08:52:14;3.83;;;1.70;;
16504;SDS011;8365;51.030;4.696;2022-07-01T08:54:45;3.77;;;1.50;;
16504;SDS011;8365;51.030;4.696;2022-07-01T08:57:19;4.33;;;1.70;;
16504;SDS011;8365;51.030;4.696;2022-07-01T09:00:04;3.73;;;1.30;;
16504;SDS011;8365;51.030;4.696;2022-07-01T09:05:34;3.70;;;1.70;;
16504;SDS011;8365;51.030;4.696;2022-07-01T09:08:06;4.80;;;1.83;;
16504;SDS011;8365;51.030;4.696;2022-07-01T09:10:37;2.92;;;1.42;;
16504;SDS011;8365;51.030;4.696;2022-07-01T09:13:08;7.07;;;1.80;;
16504;SDS011;8365;51.030;4.696;2022-07-01T09:15:41;8.02;;;2.05;;
16504;SDS011;8365;51.030;4.696;2022-07-01T09:20:44;2.35;;;1.60;;
16504;SDS011;8365;51.030;4.696;2022-07-01T09:23:19;3.38;;;1.70;;
16504;SDS011;8365;51.030;4.696;2022-07-01T09:25:50;2.45;;;1.50;;
16504;SDS011;8365;51.030;4.696;2022-07-01T09:28:22;4.80;;;1.92;;
16504;SDS011;8365;51.030;4.696;2022-07-01T09:30:54;5.15;;;1.88;;
16504;SDS011;8365;51.030;4.696;2022-07-01T09:33:29;5.68;;;1.65;;
16504;SDS011;8365;51.030;4.696;2022-07-01T09:36:00;2.58;;;1.73;;
16504;SDS011;8365;51.030;4.696;2022-07-01T09:38:30;3.03;;;1.80;;
16504;SDS011;8365;51.030;4.696;2022-07-01T09:41:02;2.78;;;1.67;;
16504;SDS011;8365;51.030;4.696;2022-07-01T09:43:36;3.30;;;1.70;;
16504;SDS011;8365;51.030;4.696;2022-07-01T09:46:07;2.47;;;1.70;;
16504;SDS011;8365;51.030;4.696;2022-07-01T09:51:11;8.05;;;1.67;;
16504;SDS011;8365;51.030;4.696;2022-07-01T09:53:43;4.13;;;1.50;;
16504;SDS011;8365;51.030;4.696;2022-07-01T09:56:14;3.83;;;1.40;;
16504;SDS011;8365;51.030;4.696;2022-07-01T09:58:44;4.57;;;2.00;;
16504;SDS011;8365;51.030;4.696;2022-07-01T10:01:15;6.28;;;2.00;;
16504;SDS011;8365;51.030;4.696;2022-07-01T10:03:47;1.75;;;1.40;;
16504;SDS011;8365;51.030;4.696;2022-07-01T10:06:31;4.80;;;1.88;;
16504;SDS011;8365;51.030;4.696;2022-07-01T10:09:18;3.92;;;1.45;;
16504;SDS011;8365;51.030;4.696;2022-07-01T10:15:07;4.15;;;1.77;;
16504;SDS011;8365;51.030;4.696;2022-07-01T10:17:46;2.42;;;1.33;;
16504;SDS011;8365;51.030;4.696;2022-07-01T10:20:22;3.65;;;1.40;;
16504;SDS011;8365;51.030;4.696;2022-07-01T10:23:01;4.53;;;1.60;;
16504;SDS011;8365;51.030;4.696;2022-07-01T10:30:56;2.75;;;1.40;;
16504;SDS011;8365;51.030;4.696;2022-07-01T10:36:39;3.55;;;1.70;;
16504;SDS011;8365;51.030;4.696;2022-07-01T10:39:10;2.25;;;1.70;;
16504;SDS011;8365;51.030;4.696;2022-07-01T10:44:24;4.05;;;1.55;;
16504;SDS011;8365;51.030;4.696;2022-07-01T10:47:06;3.35;;;1.60;;
16504;SDS011;8365;51.030;4.696;2022-07-01T10:52:11;3.10;;;1.52;;
16504;SDS011;8365;51.030;4.696;2022-07-01T10:54:50;4.40;;;1.65;;
16504;SDS011;8365;51.030;4.696;2022-07-01T10:57:30;3.85;;;1.50;;
16504;SDS011;8365;51.030;4.696;2022-07-01T11:02:32;2.58;;;2.00;;
16504;SDS011;8365;51.030;4.696;2022-07-01T11:05:07;4.05;;;2.20;;
16504;SDS011;8365;51.030;4.696;2022-07-01T11:07:42;3.03;;;2.13;;
16504;SDS011;8365;51.030;4.696;2022-07-01T11:10:15;2.90;;;1.90;;
16504;SDS011;8365;51.030;4.696;2022-07-01T11:12:48;4.20;;;2.42;;
16504;SDS011;8365;51.030;4.696;2022-07-01T11:15:21;2.83;;;1.70;;
16504;SDS011;8365;51.030;4.696;2022-07-01T11:17:52;3.13;;;2.08;;
16504;SDS011;8365;51.030;4.696;2022-07-01T11:20:26;3.55;;;1.92;;
16504;SDS011;8365;51.030;4.696;2022-07-01T11:23:00;7.53;;;2.20;;
16504;SDS011;8365;51.030;4.696;2022-07-01T11:25:30;1.77;;;1.67;;
16504;SDS011;8365;51.030;4.696;2022-07-01T11:28:01;4.28;;;2.17;;
16504;SDS011;8365;51.030;4.696;2022-07-01T11:30:32;2.30;;;1.83;;
16504;SDS011;8365;51.030;4.696;2022-07-01T11:33:03;2.53;;;1.98;;
16504;SDS011;8365;51.030;4.696;2022-07-01T11:35:33;3.70;;;2.20;;
16504;SDS011;8365;51.030;4.696;2022-07-01T11:38:25;3.72;;;1.83;;
16504;SDS011;8365;51.030;4.696;2022-07-01T11:41:19;3.47;;;2.10;;
16504;SDS011;8365;51.030;4.696;2022-07-01T11:43:51;2.60;;;1.73;;
16504;SDS011;8365;51.030;4.696;2022-07-01T11:46:22;4.00;;;1.95;;
16504;SDS011;8365;51.030;4.696;2022-07-01T11:48:53;3.55;;;1.80;;
16504;SDS011;8365;51.030;4.696;2022-07-01T11:51:26;5.47;;;1.90;;
16504;SDS011;8365;51.030;4.696;2022-07-01T11:53:57;2.08;;;1.42;;
16504;SDS011;8365;51.030;4.696;2022-07-01T11:56:31;2.92;;;1.60;;
16504;SDS011;8365;51.030;4.696;2022-07-01T11:59:08;3.45;;;1.48;;
16504;SDS011;8365;51.030;4.696;2022-07-01T12:01:38;3.53;;;1.35;;
16504;SDS011;8365;51.030;4.696;2022-07-01T12:04:09;1.63;;;1.40;;
16504;SDS011;8365;51.030;4.696;2022-07-01T12:06:42;3.38;;;1.30;;
16504;SDS011;8365;51.030;4.696;2022-07-01T12:09:16;2.38;;;1.15;;
16504;SDS011;8365;51.030;4.696;2022-07-01T12:11:48;2.30;;;1.23;;
16504;SDS011;8365;51.030;4.696;2022-07-01T12:14:22;4.20;;;1.20;;
16504;SDS011;8365;51.030;4.696;2022-07-01T12:17:06;2.33;;;1.30;;
16504;SDS011;8365;51.030;4.696;2022-07-01T12:19:39;3.58;;;1.50;;
16504;SDS011;8365;51.030;4.696;2022-07-01T12:22:14;2.25;;;1.30;;
16504;SDS011;8365;51.030;4.696;2022-07-01T12:24:50;4.32;;;1.48;;
16504;SDS011;8365;51.030;4.696;2022-07-01T12:27:22;1.92;;;1.38;;
16504;SDS011;8365;51.030;4.696;2022-07-01T12:29:53;3.78;;;1.48;;
16504;SDS011;8365;51.030;4.696;2022-07-01T12:32:24;2.10;;;1.13;;
16504;SDS011;8365;51.030;4.696;2022-07-01T12:34:58;4.10;;;1.42;;
16504;SDS011;8365;51.030;4.696;2022-07-01T12:37:34;2.75;;;1.48;;
16504;SDS011;8365;51.030;4.696;2022-07-01T12:40:23;2.88;;;1.50;;
16504;SDS011;8365;51.030;4.696;2022-07-01T12:42:55;2.22;;;1.00;;
16504;SDS011;8365;51.030;4.696;2022-07-01T12:45:29;3.20;;;1.20;;
16504;SDS011;8365;51.030;4.696;2022-07-01T12:48:00;2.42;;;1.20;;
16504;SDS011;8365;51.030;4.696;2022-07-01T12:50:30;1.67;;;1.08;;
16504;SDS011;8365;51.030;4.696;2022-07-01T12:53:05;2.88;;;1.10;;
16504;SDS011;8365;51.030;4.696;2022-07-01T12:55:47;1.88;;;1.05;;
16504;SDS011;8365;51.030;4.696;2022-07-01T12:58:23;1.45;;;1.10;;
16504;SDS011;8365;51.030;4.696;2022-07-01T13:00:57;3.00;;;1.27;;
16504;SDS011;8365;51.030;4.696;2022-07-01T13:03:28;5.07;;;1.25;;
16504;SDS011;8365;51.030;4.696;2022-07-01T13:05:59;1.52;;;1.20;;
16504;SDS011;8365;51.030;4.696;2022-07-01T13:08:29;3.17;;;1.30;;
16504;SDS011;8365;51.030;4.696;2022-07-01T13:10:59;1.60;;;1.30;;
16504;SDS011;8365;51.030;4.696;2022-07-01T13:13:30;1.92;;;1.23;;
16504;SDS011;8365;51.030;4.696;2022-07-01T13:16:00;1.38;;;1.27;;
16504;SDS011;8365;51.030;4.696;2022-07-01T13:18:31;4.65;;;1.90;;
16504;SDS011;8365;51.030;4.696;2022-07-01T13:21:01;1.40;;;0.98;;
16504;SDS011;8365;51.030;4.696;2022-07-01T13:23:32;4.75;;;1.20;;
16504;SDS011;8365;51.030;4.696;2022-07-01T13:26:02;3.42;;;1.25;;
16504;SDS011;8365;51.030;4.696;2022-07-01T13:28:33;1.55;;;1.30;;
16504;SDS011;8365;51.030;4.696;2022-07-01T13:31:03;2.53;;;1.67;;
16504;SDS011;8365;51.030;4.696;2022-07-01T13:33:34;3.58;;;1.17;;
16504;SDS011;8365;51.030;4.696;2022-07-01T13:36:05;3.50;;;1.23;;
16504;SDS011;8365;51.030;4.696;2022-07-01T13:38:35;4.68;;;1.30;;
16504;SDS011;8365;51.030;4.696;2022-07-01T13:41:06;3.15;;;1.40;;
16504;SDS011;8365;51.030;4.696;2022-07-01T13:43:37;1.85;;;1.20;;
16504;SDS011;8365;51.030;4.696;2022-07-01T13:46:08;1.67;;;1.20;;
16504;SDS011;8365;51.030;4.696;2022-07-01T13:48:39;3.70;;;1.42;;
16504;SDS011;8365;51.030;4.696;2022-07-01T13:51:09;1.67;;;1.30;;
16504;SDS011;8365;51.030;4.696;2022-07-01T13:53:39;1.55;;;1.35;;
16504;SDS011;8365;51.030;4.696;2022-07-01T13:56:10;3.10;;;1.30;;
16504;SDS011;8365;51.030;4.696;2022-07-01T13:58:40;1.83;;;1.48;;
16504;SDS011;8365;51.030;4.696;2022-07-01T14:01:11;3.05;;;1.60;;
16504;SDS011;8365;51.030;4.696;2022-07-01T14:03:41;4.63;;;1.33;;
16504;SDS011;8365;51.030;4.696;2022-07-01T14:06:12;2.03;;;1.35;;
16504;SDS011;8365;51.030;4.696;2022-07-01T14:08:42;2.30;;;1.38;;
16504;SDS011;8365;51.030;4.696;2022-07-01T14:11:13;3.38;;;1.20;;
16504;SDS011;8365;51.030;4.696;2022-07-01T14:13:44;2.28;;;1.25;;
16504;SDS011;8365;51.030;4.696;2022-07-01T14:16:16;2.22;;;1.00;;
16504;SDS011;8365;51.030;4.696;2022-07-01T14:18:47;2.85;;;1.30;;
16504;SDS011;8365;51.030;4.696;2022-07-01T14:21:18;3.03;;;1.40;;
16504;SDS011;8365;51.030;4.696;2022-07-01T14:23:53;8.13;;;1.65;;
16504;SDS011;8365;51.030;4.696;2022-07-01T14:26:23;1.50;;;1.15;;
16504;SDS011;8365;51.030;4.696;2022-07-01T14:28:54;2.65;;;1.25;;
16504;SDS011;8365;51.030;4.696;2022-07-01T14:31:24;5.05;;;1.20;;
16504;SDS011;8365;51.030;4.696;2022-07-01T14:33:55;3.00;;;1.40;;
16504;SDS011;8365;51.030;4.696;2022-07-01T14:36:25;2.88;;;1.50;;
16504;SDS011;8365;51.030;4.696;2022-07-01T14:38:56;5.70;;;1.92;;
16504;SDS011;8365;51.030;4.696;2022-07-01T14:41:26;3.35;;;1.83;;
16504;SDS011;8365;51.030;4.696;2022-07-01T14:43:57;2.40;;;1.67;;
16504;SDS011;8365;51.030;4.696;2022-07-01T14:46:27;4.53;;;1.85;;
16504;SDS011;8365;51.030;4.696;2022-07-01T14:48:58;4.78;;;1.80;;
16504;SDS011;8365;51.030;4.696;2022-07-01T14:51:31;5.95;;;1.67;;
16504;SDS011;8365;51.030;4.696;2022-07-01T14:54:01;3.72;;;1.70;;
16504;SDS011;8365;51.030;4.696;2022-07-01T14:56:32;4.63;;;1.65;;
16504;SDS011;8365;51.030;4.696;2022-07-01T14:59:02;2.60;;;1.63;;
16504;SDS011;8365;51.030;4.696;2022-07-01T15:01:33;3.90;;;1.40;;
16504;SDS011;8365;51.030;4.696;2022-07-01T15:04:04;3.40;;;1.60;;
16504;SDS011;8365;51.030;4.696;2022-07-01T15:06:35;2.75;;;1.70;;
16504;SDS011;8365;51.030;4.696;2022-07-01T15:09:05;3.17;;;1.63;;
16504;SDS011;8365;51.030;4.696;2022-07-01T15:11:36;3.90;;;1.50;;
16504;SDS011;8365;51.030;4.696;2022-07-01T15:14:06;5.70;;;1.50;;
16504;SDS011;8365;51.030;4.696;2022-07-01T15:16:37;4.57;;;1.40;;
16504;SDS011;8365;51.030;4.696;2022-07-01T15:19:12;3.17;;;1.63;;
16504;SDS011;8365;51.030;4.696;2022-07-01T15:21:43;3.53;;;1.70;;
16504;SDS011;8365;51.030;4.696;2022-07-01T15:24:14;2.25;;;1.58;;
16504;SDS011;8365;51.030;4.696;2022-07-01T15:26:44;2.38;;;1.40;;
16504;SDS011;8365;51.030;4.696;2022-07-01T15:29:14;4.10;;;1.60;;
16504;SDS011;8365;51.030;4.696;2022-07-01T15:31:45;3.10;;;1.38;;
16504;SDS011;8365;51.030;4.696;2022-07-01T15:34:16;5.28;;;1.63;;
16504;SDS011;8365;51.030;4.696;2022-07-01T15:36:46;2.92;;;1.30;;
16504;SDS011;8365;51.030;4.696;2022-07-01T15:39:17;3.70;;;1.42;;
16504;SDS011;8365;51.030;4.696;2022-07-01T15:41:48;2.35;;;1.50;;
16504;SDS011;8365;51.030;4.696;2022-07-01T15:44:19;2.72;;;1.33;;
16504;SDS011;8365;51.030;4.696;2022-07-01T15:46:50;2.00;;;1.08;;
16504;SDS011;8365;51.030;4.696;2022-07-01T15:49:22;1.35;;;1.00;;
16504;SDS011;8365;51.030;4.696;2022-07-01T15:51:52;3.33;;;1.40;;
16504;SDS011;8365;51.030;4.696;2022-07-01T15:54:25;3.85;;;1.40;;